sensor_id;sensor_type;location;lat;lon;timestamp;pressure;altitude;pressure_sealevel;temperature;humidity
78717;BME280;68045;50.042;14.432;2023-12-22T00:02:04;96002.22;;;5.17;68.28
78717;BME280;68045;50.042;14.432;2023-12-22T00:06:05;96003.16;;;5.01;70.00
78717;BME280;68045;50.042;14.432;2023-12-22T00:10:07;96000.19;;;4.87;70.22
78717;BME280;68045;50.042;14.432;2023-12-22T00:14:11;95974.13;;;4.97;70.27
78717;BME280;68045;50.042;14.432;2023-12-22T00:18:11;96007.16;;;5.08;69.85
78717;BME280;68045;50.042;14.432;2023-12-22T00:22:13;96015.00;;;5.08;69.35
78717;BME280;68045;50.042;14.432;2023-12-22T00:26:14;96009.28;;;5.16;68.44
78717;BME280;68045;50.042;14.432;2023-12-22T00:30:16;96002.72;;;5.14;67.84
78717;BME280;68045;50.042;14.432;2023-12-22T00:34:16;95993.50;;;5.06;67.18
78717;BME280;68045;50.042;14.432;2023-12-22T00:38:17;96007.56;;;4.95;67.75
78717;BME280;68045;50.042;14.432;2023-12-22T00:42:18;96002.09;;;4.96;67.04
78717;BME280;68045;50.042;14.432;2023-12-22T00:46:19;96013.38;;;5.07;66.82
78717;BME280;68045;50.042;14.432;2023-12-22T00:50:21;96017.81;;;5.07;66.35
78717;BME280;68045;50.042;14.432;2023-12-22T00:54:22;96017.56;;;5.03;66.02
78717;BME280;68045;50.042;14.432;2023-12-22T00:58:23;96017.75;;;4.96;66.99
78717;BME280;68045;50.042;14.432;2023-12-22T01:02:23;96033.66;;;4.90;66.02
78717;BME280;68045;50.042;14.432;2023-12-22T01:06:25;96049.00;;;4.81;65.96
78717;BME280;68045;50.042;14.432;2023-12-22T01:10:25;96028.88;;;4.82;66.61
78717;BME280;68045;50.042;14.432;2023-12-22T01:14:27;96041.28;;;4.96;66.30
78717;BME280;68045;50.042;14.432;2023-12-22T01:18:28;96041.88;;;5.04;66.89
78717;BME280;68045;50.042;14.432;2023-12-22T01:22:30;96044.09;;;4.90;66.31
78717;BME280;68045;50.042;14.432;2023-12-22T01:26:32;96048.50;;;4.84;66.60
78717;BME280;68045;50.042;14.432;2023-12-22T01:30:33;96056.78;;;4.76;66.92
78717;BME280;68045;50.042;14.432;2023-12-22T01:34:34;96064.50;;;4.93;67.03
78717;BME280;68045;50.042;14.432;2023-12-22T01:38:36;96061.31;;;4.86;66.72
78717;BME280;68045;50.042;14.432;2023-12-22T01:42:36;96054.88;;;4.99;66.11
78717;BME280;68045;50.042;14.432;2023-12-22T01:46:38;96058.56;;;4.71;66.32
78717;BME280;68045;50.042;14.432;2023-12-22T01:50:39;96055.22;;;4.75;65.49
78717;BME280;68045;50.042;14.432;2023-12-22T01:54:40;96047.06;;;4.72;65.72
78717;BME280;68045;50.042;14.432;2023-12-22T01:58:41;96062.91;;;4.60;65.83
78717;BME280;68045;50.042;14.432;2023-12-22T02:02:52;96034.13;;;4.55;65.84
78717;BME280;68045;50.042;14.432;2023-12-22T02:06:53;96062.00;;;4.49;66.01
78717;BME280;68045;50.042;14.432;2023-12-22T02:10:54;96060.28;;;4.60;65.82
78717;BME280;68045;50.042;14.432;2023-12-22T02:14:55;96055.19;;;4.48;65.70
78717;BME280;68045;50.042;14.432;2023-12-22T02:18:57;96057.72;;;4.38;66.10
78717;BME280;68045;50.042;14.432;2023-12-22T02:22:59;96052.19;;;4.34;66.78
78717;BME280;68045;50.042;14.432;2023-12-22T02:31:48;96049.28;;;4.31;65.90
78717;BME280;68045;50.042;14.432;2023-12-22T02:35:53;96047.09;;;4.23;66.03
78717;BME280;68045;50.042;14.432;2023-12-22T02:39:59;96051.47;;;4.17;66.24
78717;BME280;68045;50.042;14.432;2023-12-22T02:44:01;96036.53;;;4.12;66.67
78717;BME280;68045;50.042;14.432;2023-12-22T02:48:02;96034.47;;;4.14;66.34
78717;BME280;68045;50.042;14.432;2023-12-22T02:52:04;96034.19;;;4.11;66.26
78717;BME280;68045;50.042;14.432;2023-12-22T02:56:05;96038.00;;;4.03;66.50
78717;BME280;68045;50.042;14.432;2023-12-22T03:00:07;96040.19;;;4.11;65.65
78717;BME280;68045;50.042;14.432;2023-12-22T03:04:08;96053.31;;;4.17;65.75
78717;BME280;68045;50.042;14.432;2023-12-22T03:08:09;96047.88;;;4.01;65.50
78717;BME280;68045;50.042;14.432;2023-12-22T03:12:10;96042.13;;;3.99;65.80
78717;BME280;68045;50.042;14.432;2023-12-22T03:16:11;96043.34;;;3.92;65.30
78717;BME280;68045;50.042;14.432;2023-12-22T03:20:12;96050.19;;;3.98;65.12
78717;BME280;68045;50.042;14.432;2023-12-22T03:24:13;96059.53;;;3.94;65.35
78717;BME280;68045;50.042;14.432;2023-12-22T03:28:14;96066.16;;;4.01;64.92
78717;BME280;68045;50.042;14.432;2023-12-22T03:32:16;96084.78;;;3.88;63.89
78717;BME280;68045;50.042;14.432;2023-12-22T03:36:17;96090.47;;;3.85;64.42
78717;BME280;68045;50.042;14.432;2023-12-22T03:40:18;96096.13;;;3.99;64.00
78717;BME280;68045;50.042;14.432;2023-12-22T03:44:20;96077.88;;;3.99;63.59
78717;BME280;68045;50.042;14.432;2023-12-22T03:48:21;96082.84;;;4.00;63.72
78717;BME280;68045;50.042;14.432;2023-12-22T03:52:21;96065.50;;;4.11;62.77
78717;BME280;68045;50.042;14.432;2023-12-22T03:56:22;96082.06;;;4.00;62.69
78717;BME280;68045;50.042;14.432;2023-12-22T04:00:23;96068.19;;;4.16;62.27
78717;BME280;68045;50.042;14.432;2023-12-22T04:04:24;96063.00;;;4.21;61.74
78717;BME280;68045;50.042;14.432;2023-12-22T04:08:28;96047.78;;;4.13;61.70
78717;BME280;68045;50.042;14.432;2023-12-22T04:12:29;96042.25;;;4.09;62.47
78717;BME280;68045;50.042;14.432;2023-12-22T04:16:30;96051.34;;;4.07;62.46
78717;BME280;68045;50.042;14.432;2023-12-22T04:20:31;96052.56;;;3.99;62.37
78717;BME280;68045;50.042;14.432;2023-12-22T04:24:32;96065.72;;;3.88;62.87
78717;BME280;68045;50.042;14.432;2023-12-22T04:28:33;96075.63;;;3.85;63.60
78717;BME280;68045;50.042;14.432;2023-12-22T04:32:34;96049.81;;;3.67;64.73
78717;BME280;68045;50.042;14.432;2023-12-22T04:36:35;96058.47;;;3.73;65.24
78717;BME280;68045;50.042;14.432;2023-12-22T04:40:36;96050.81;;;3.83;65.32
78717;BME280;68045;50.042;14.432;2023-12-22T04:44:37;96056.50;;;3.80;65.61
78717;BME280;68045;50.042;14.432;2023-12-22T04:48:37;96047.34;;;3.77;65.68
78717;BME280;68045;50.042;14.432;2023-12-22T04:52:38;96046.81;;;3.97;65.25
78717;BME280;68045;50.042;14.432;2023-12-22T04:56:40;96036.38;;;3.97;65.46
78717;BME280;68045;50.042;14.432;2023-12-22T05:00:41;96034.19;;;3.89;65.70
78717;BME280;68045;50.042;14.432;2023-12-22T05:04:42;96042.63;;;3.96;66.27
78717;BME280;68045;50.042;14.432;2023-12-22T05:08:43;96066.28;;;4.11;66.39
78717;BME280;68045;50.042;14.432;2023-12-22T05:12:44;96070.97;;;4.31;65.96
78717;BME280;68045;50.042;14.432;2023-12-22T05:16:45;96075.81;;;4.45;67.66
78717;BME280;68045;50.042;14.432;2023-12-22T05:20:46;96085.84;;;4.31;68.84
78717;BME280;68045;50.042;14.432;2023-12-22T05:24:46;96064.97;;;3.70;75.57
78717;BME280;68045;50.042;14.432;2023-12-22T05:28:48;96073.75;;;3.81;78.39
78717;BME280;68045;50.042;14.432;2023-12-22T05:32:52;96089.25;;;3.71;80.43
78717;BME280;68045;50.042;14.432;2023-12-22T05:36:55;96082.94;;;3.67;81.03
78717;BME280;68045;50.042;14.432;2023-12-22T05:40:56;96086.66;;;3.54;82.17
78717;BME280;68045;50.042;14.432;2023-12-22T05:44:56;96088.47;;;3.37;82.43
78717;BME280;68045;50.042;14.432;2023-12-22T05:48:58;96090.47;;;3.29;82.88
78717;BME280;68045;50.042;14.432;2023-12-22T05:53:00;96110.28;;;3.30;82.36
78717;BME280;68045;50.042;14.432;2023-12-22T05:57:02;96102.63;;;3.24;81.61
78717;BME280;68045;50.042;14.432;2023-12-22T06:01:05;96100.59;;;3.26;80.85
78717;BME280;68045;50.042;14.432;2023-12-22T06:05:07;96112.00;;;3.58;78.25
78717;BME280;68045;50.042;14.432;2023-12-22T06:09:08;96113.25;;;3.73;77.41
78717;BME280;68045;50.042;14.432;2023-12-22T06:13:08;96113.72;;;3.86;76.47
78717;BME280;68045;50.042;14.432;2023-12-22T06:17:09;96113.53;;;3.93;75.64
78717;BME280;68045;50.042;14.432;2023-12-22T06:21:12;96114.34;;;3.94;73.56
78717;BME280;68045;50.042;14.432;2023-12-22T06:25:15;96122.72;;;3.96;74.33
78717;BME280;68045;50.042;14.432;2023-12-22T06:29:16;96117.38;;;4.07;74.38
78717;BME280;68045;50.042;14.432;2023-12-22T06:33:18;96127.66;;;4.14;76.29
78717;BME280;68045;50.042;14.432;2023-12-22T06:37:19;96143.00;;;3.89;78.61
78717;BME280;68045;50.042;14.432;2023-12-22T06:41:38;96132.59;;;3.55;81.59
78717;BME280;68045;50.042;14.432;2023-12-22T06:45:38;96134.22;;;3.27;83.41
78717;BME280;68045;50.042;14.432;2023-12-22T06:49:40;96127.25;;;2.99;84.94
78717;BME280;68045;50.042;14.432;2023-12-22T06:53:41;96138.84;;;2.92;85.68
78717;BME280;68045;50.042;14.432;2023-12-22T06:57:43;96147.28;;;2.82;86.43
78717;BME280;68045;50.042;14.432;2023-12-22T07:01:44;96148.34;;;2.69;86.71
78717;BME280;68045;50.042;14.432;2023-12-22T07:05:45;96144.59;;;2.94;85.49
78717;BME280;68045;50.042;14.432;2023-12-22T07:09:46;96126.91;;;2.96;84.15
78717;BME280;68045;50.042;14.432;2023-12-22T07:13:47;96152.75;;;2.97;84.53
78717;BME280;68045;50.042;14.432;2023-12-22T07:17:48;96148.34;;;2.98;83.83
78717;BME280;68045;50.042;14.432;2023-12-22T07:21:49;96158.03;;;3.02;83.89
78717;BME280;68045;50.042;14.432;2023-12-22T07:25:50;96141.94;;;3.06;82.62
78717;BME280;68045;50.042;14.432;2023-12-22T07:29:51;96158.63;;;3.21;81.05
78717;BME280;68045;50.042;14.432;2023-12-22T07:33:52;96159.97;;;3.24;80.36
78717;BME280;68045;50.042;14.432;2023-12-22T07:37:55;96164.03;;;3.48;79.78
78717;BME280;68045;50.042;14.432;2023-12-22T07:41:56;96156.19;;;3.65;77.12
78717;BME280;68045;50.042;14.432;2023-12-22T07:45:58;96162.03;;;3.72;76.17
78717;BME280;68045;50.042;14.432;2023-12-22T07:49:59;96162.22;;;3.82;74.75
78717;BME280;68045;50.042;14.432;2023-12-22T07:54:00;96165.72;;;4.10;73.20
78717;BME280;68045;50.042;14.432;2023-12-22T07:58:01;96153.06;;;4.62;71.18
78717;BME280;68045;50.042;14.432;2023-12-22T08:02:02;96152.38;;;4.72;71.35
78717;BME280;68045;50.042;14.432;2023-12-22T08:06:03;96162.69;;;4.84;70.30
78717;BME280;68045;50.042;14.432;2023-12-22T08:10:05;96176.34;;;4.91;69.87
78717;BME280;68045;50.042;14.432;2023-12-22T08:14:06;96180.44;;;4.82;68.11
78717;BME280;68045;50.042;14.432;2023-12-22T08:18:07;96177.16;;;5.18;67.76
78717;BME280;68045;50.042;14.432;2023-12-22T08:22:12;96191.56;;;4.94;67.76
78717;BME280;68045;50.042;14.432;2023-12-22T08:26:16;96191.00;;;4.92;68.45
78717;BME280;68045;50.042;14.432;2023-12-22T08:30:20;96205.41;;;4.51;69.84
78717;BME280;68045;50.042;14.432;2023-12-22T08:34:21;96218.69;;;4.27;74.06
78717;BME280;68045;50.042;14.432;2023-12-22T08:38:22;96226.06;;;3.63;79.67
78717;BME280;68045;50.042;14.432;2023-12-22T08:42:26;96244.34;;;3.63;81.51
78717;BME280;68045;50.042;14.432;2023-12-22T08:46:27;96239.16;;;3.51;82.65
78717;BME280;68045;50.042;14.432;2023-12-22T08:50:28;96242.31;;;3.37;83.54
78717;BME280;68045;50.042;14.432;2023-12-22T08:54:30;96238.50;;;2.99;85.66
78717;BME280;68045;50.042;14.432;2023-12-22T08:58:31;96243.56;;;2.54;88.14
78717;BME280;68045;50.042;14.432;2023-12-22T09:02:32;96267.31;;;2.81;87.81
78717;BME280;68045;50.042;14.432;2023-12-22T09:06:33;96260.75;;;2.78;88.19
78717;BME280;68045;50.042;14.432;2023-12-22T09:10:34;96249.84;;;2.93;88.12
78717;BME280;68045;50.042;14.432;2023-12-22T09:14:36;96288.66;;;3.06;87.95
78717;BME280;68045;50.042;14.432;2023-12-22T09:18:37;96280.06;;;2.94;87.50
78717;BME280;68045;50.042;14.432;2023-12-22T09:22:37;96260.94;;;3.28;86.75
78717;BME280;68045;50.042;14.432;2023-12-22T09:26:38;96267.53;;;4.10;87.12
78717;BME280;68045;50.042;14.432;2023-12-22T09:30:40;96264.16;;;4.87;82.79
78717;BME280;68045;50.042;14.432;2023-12-22T09:34:42;96250.84;;;5.37;79.12
78717;BME280;68045;50.042;14.432;2023-12-22T09:38:43;96256.16;;;5.74;76.32
78717;BME280;68045;50.042;14.432;2023-12-22T09:42:45;96247.56;;;6.11;73.62
78717;BME280;68045;50.042;14.432;2023-12-22T09:46:50;96240.84;;;6.63;71.79
78717;BME280;68045;50.042;14.432;2023-12-22T09:50:53;96221.78;;;6.30;69.55
78717;BME280;68045;50.042;14.432;2023-12-22T09:54:57;96259.88;;;6.11;70.47
78717;BME280;68045;50.042;14.432;2023-12-22T09:58:59;96250.66;;;5.76;69.81
78717;BME280;68045;50.042;14.432;2023-12-22T10:03:01;96252.47;;;5.43;71.82
78717;BME280;68045;50.042;14.432;2023-12-22T10:07:03;96239.88;;;4.91;73.78
78717;BME280;68045;50.042;14.432;2023-12-22T10:11:06;96220.91;;;4.19;76.78
78717;BME280;68045;50.042;14.432;2023-12-22T10:15:08;96209.63;;;3.63;77.95
78717;BME280;68045;50.042;14.432;2023-12-22T10:19:10;96235.56;;;3.52;77.36
78717;BME280;68045;50.042;14.432;2023-12-22T10:23:12;96259.13;;;3.29;77.71
78717;BME280;68045;50.042;14.432;2023-12-22T10:27:15;96249.09;;;3.38;79.53
78717;BME280;68045;50.042;14.432;2023-12-22T10:31:22;96285.72;;;3.31;80.84
78717;BME280;68045;50.042;14.432;2023-12-22T10:35:25;96316.34;;;3.36;81.50
78717;BME280;68045;50.042;14.432;2023-12-22T10:39:30;96295.50;;;3.24;82.45
78717;BME280;68045;50.042;14.432;2023-12-22T10:43:37;96321.03;;;3.22;83.16
78717;BME280;68045;50.042;14.432;2023-12-22T10:47:39;96318.00;;;3.01;83.49
78717;BME280;68045;50.042;14.432;2023-12-22T10:51:43;96309.78;;;2.81;83.92
78717;BME280;68045;50.042;14.432;2023-12-22T10:55:46;96283.63;;;2.76;84.49
78717;BME280;68045;50.042;14.432;2023-12-22T10:59:47;96313.06;;;2.53;86.14
78717;BME280;68045;50.042;14.432;2023-12-22T11:03:50;96338.44;;;2.46;87.20
78717;BME280;68045;50.042;14.432;2023-12-22T11:07:55;96337.53;;;2.64;86.72
78717;BME280;68045;50.042;14.432;2023-12-22T11:11:56;96337.97;;;2.72;86.06
78717;BME280;68045;50.042;14.432;2023-12-22T11:15:58;96345.44;;;3.04;86.07
78717;BME280;68045;50.042;14.432;2023-12-22T11:19:59;96343.19;;;3.36;85.90
78717;BME280;68045;50.042;14.432;2023-12-22T11:24:01;96345.00;;;3.36;85.53
78717;BME280;68045;50.042;14.432;2023-12-22T11:28:03;96340.88;;;3.51;85.25
78717;BME280;68045;50.042;14.432;2023-12-22T11:32:08;96335.75;;;3.56;84.94
78717;BME280;68045;50.042;14.432;2023-12-22T11:36:11;96330.94;;;3.65;84.70
78717;BME280;68045;50.042;14.432;2023-12-22T11:40:12;96373.69;;;3.76;84.65
78717;BME280;68045;50.042;14.432;2023-12-22T11:44:13;96355.28;;;3.99;83.78
78717;BME280;68045;50.042;14.432;2023-12-22T11:48:15;96356.22;;;3.93;83.62
78717;BME280;68045;50.042;14.432;2023-12-22T11:52:18;96341.81;;;3.74;82.91
78717;BME280;68045;50.042;14.432;2023-12-22T11:56:19;96335.34;;;3.76;84.41
78717;BME280;68045;50.042;14.432;2023-12-22T12:04:22;96316.00;;;4.95;82.42
78717;BME280;68045;50.042;14.432;2023-12-22T12:08:29;96310.56;;;4.80;82.17
78717;BME280;68045;50.042;14.432;2023-12-22T12:12:31;96295.44;;;4.82;81.13
78717;BME280;68045;50.042;14.432;2023-12-22T12:16:34;96281.25;;;4.78;79.50
78717;BME280;68045;50.042;14.432;2023-12-22T12:20:38;96265.44;;;4.29;78.30
78717;BME280;68045;50.042;14.432;2023-12-22T12:24:41;96254.28;;;4.33;76.46
78717;BME280;68045;50.042;14.432;2023-12-22T12:28:45;96250.88;;;4.33;77.17
78717;BME280;68045;50.042;14.432;2023-12-22T12:32:48;96246.78;;;4.37;77.10
78717;BME280;68045;50.042;14.432;2023-12-22T12:36:50;96243.75;;;4.28;76.65
78717;BME280;68045;50.042;14.432;2023-12-22T12:40:52;96241.41;;;4.27;77.51
78717;BME280;68045;50.042;14.432;2023-12-22T12:44:54;96241.88;;;4.24;76.36
78717;BME280;68045;50.042;14.432;2023-12-22T12:49:09;96235.13;;;4.28;77.19
78717;BME280;68045;50.042;14.432;2023-12-22T12:53:12;96224.28;;;4.36;76.11
78717;BME280;68045;50.042;14.432;2023-12-22T12:57:15;96210.69;;;4.34;75.95
78717;BME280;68045;50.042;14.432;2023-12-22T13:01:17;96209.41;;;4.36;75.55
78717;BME280;68045;50.042;14.432;2023-12-22T13:05:24;96226.44;;;4.22;75.89
78717;BME280;68045;50.042;14.432;2023-12-22T13:09:32;96223.00;;;4.17;76.40
78717;BME280;68045;50.042;14.432;2023-12-22T13:13:41;96203.44;;;4.19;77.53
78717;BME280;68045;50.042;14.432;2023-12-22T13:17:43;96212.50;;;3.95;76.64
78717;BME280;68045;50.042;14.432;2023-12-22T13:21:44;96208.91;;;4.01;79.15
78717;BME280;68045;50.042;14.432;2023-12-22T13:25:46;96169.06;;;3.72;80.59
78717;BME280;68045;50.042;14.432;2023-12-22T13:29:47;96228.06;;;3.90;80.60
78717;BME280;68045;50.042;14.432;2023-12-22T13:33:49;96207.66;;;3.86;81.32
78717;BME280;68045;50.042;14.432;2023-12-22T13:37:50;96202.38;;;3.81;81.88
78717;BME280;68045;50.042;14.432;2023-12-22T13:41:51;96208.16;;;3.67;83.03
78717;BME280;68045;50.042;14.432;2023-12-22T13:45:52;96221.69;;;3.52;83.63
78717;BME280;68045;50.042;14.432;2023-12-22T13:49:54;96205.84;;;3.70;84.36
78717;BME280;68045;50.042;14.432;2023-12-22T13:53:55;96189.66;;;3.68;83.88
78717;BME280;68045;50.042;14.432;2023-12-22T13:57:59;96192.00;;;3.53;84.19
78717;BME280;68045;50.042;14.432;2023-12-22T14:02:01;96167.50;;;3.54;84.28
78717;BME280;68045;50.042;14.432;2023-12-22T14:06:02;96178.25;;;3.57;83.97
78717;BME280;68045;50.042;14.432;2023-12-22T14:10:05;96198.88;;;3.59;83.99
78717;BME280;68045;50.042;14.432;2023-12-22T14:14:06;96191.13;;;3.47;82.94
78717;BME280;68045;50.042;14.432;2023-12-22T14:18:07;96167.81;;;3.74;82.24
78717;BME280;68045;50.042;14.432;2023-12-22T14:22:08;96154.44;;;3.88;81.08
78717;BME280;68045;50.042;14.432;2023-12-22T14:26:09;96145.97;;;3.97;80.23
78717;BME280;68045;50.042;14.432;2023-12-22T14:30:10;96141.44;;;4.09;79.56
78717;BME280;68045;50.042;14.432;2023-12-22T14:34:14;96123.47;;;4.13;78.96
78717;BME280;68045;50.042;14.432;2023-12-22T14:38:15;96121.78;;;4.24;77.34
78717;BME280;68045;50.042;14.432;2023-12-22T14:42:16;96134.16;;;4.33;77.26
78717;BME280;68045;50.042;14.432;2023-12-22T14:46:17;96120.88;;;4.35;77.20
78717;BME280;68045;50.042;14.432;2023-12-22T14:50:18;96143.50;;;4.29;76.40
78717;BME280;68045;50.042;14.432;2023-12-22T14:54:19;96135.31;;;4.43;75.81
78717;BME280;68045;50.042;14.432;2023-12-22T14:58:21;96149.59;;;4.57;75.84
78717;BME280;68045;50.042;14.432;2023-12-22T15:02:22;96143.09;;;4.59;73.86
78717;BME280;68045;50.042;14.432;2023-12-22T15:06:24;96146.13;;;4.73;74.21
78717;BME280;68045;50.042;14.432;2023-12-22T15:10:25;96165.44;;;4.72;74.39
78717;BME280;68045;50.042;14.432;2023-12-22T15:14:26;96161.13;;;4.83;73.52
78717;BME280;68045;50.042;14.432;2023-12-22T15:18:27;96149.38;;;4.85;73.72
78717;BME280;68045;50.042;14.432;2023-12-22T15:22:28;96170.88;;;4.92;73.81
78717;BME280;68045;50.042;14.432;2023-12-22T15:26:29;96178.78;;;4.97;72.56
78717;BME280;68045;50.042;14.432;2023-12-22T15:30:30;96176.97;;;4.98;72.47
78717;BME280;68045;50.042;14.432;2023-12-22T15:34:31;96192.94;;;5.02;72.65
78717;BME280;68045;50.042;14.432;2023-12-22T15:38:33;96192.69;;;5.03;73.53
78717;BME280;68045;50.042;14.432;2023-12-22T15:42:33;96209.31;;;5.19;73.39
78717;BME280;68045;50.042;14.432;2023-12-22T15:46:34;96209.63;;;5.22;73.17
78717;BME280;68045;50.042;14.432;2023-12-22T15:50:35;96199.66;;;5.19;73.00
78717;BME280;68045;50.042;14.432;2023-12-22T15:54:38;96196.31;;;5.24;72.85
78717;BME280;68045;50.042;14.432;2023-12-22T15:58:39;96202.59;;;5.23;73.77
78717;BME280;68045;50.042;14.432;2023-12-22T16:02:46;96206.25;;;5.27;73.70
78717;BME280;68045;50.042;14.432;2023-12-22T16:06:47;96205.00;;;5.30;73.48
78717;BME280;68045;50.042;14.432;2023-12-22T16:10:49;96201.09;;;5.32;73.48
78717;BME280;68045;50.042;14.432;2023-12-22T16:14:50;96210.13;;;5.19;74.38
78717;BME280;68045;50.042;14.432;2023-12-22T16:18:55;96193.28;;;5.10;73.87
78717;BME280;68045;50.042;14.432;2023-12-22T16:22:56;96186.16;;;5.01;74.40
78717;BME280;68045;50.042;14.432;2023-12-22T16:26:56;96185.75;;;5.14;73.56
78717;BME280;68045;50.042;14.432;2023-12-22T16:30:57;96189.13;;;5.14;73.51
78717;BME280;68045;50.042;14.432;2023-12-22T16:34:58;96180.81;;;5.17;72.51
78717;BME280;68045;50.042;14.432;2023-12-22T16:38:59;96177.47;;;5.22;72.35
78717;BME280;68045;50.042;14.432;2023-12-22T16:43:01;96177.69;;;5.20;71.46
78717;BME280;68045;50.042;14.432;2023-12-22T16:47:02;96169.84;;;5.20;71.98
78717;BME280;68045;50.042;14.432;2023-12-22T16:51:04;96171.00;;;5.30;71.86
78717;BME280;68045;50.042;14.432;2023-12-22T16:55:06;96154.28;;;5.31;72.30
78717;BME280;68045;50.042;14.432;2023-12-22T16:59:08;96173.09;;;5.33;72.36
78717;BME280;68045;50.042;14.432;2023-12-22T17:03:09;96171.38;;;5.43;72.04
78717;BME280;68045;50.042;14.432;2023-12-22T17:07:10;96165.38;;;5.16;72.74
78717;BME280;68045;50.042;14.432;2023-12-22T17:11:10;96164.34;;;5.17;72.83
78717;BME280;68045;50.042;14.432;2023-12-22T17:15:11;96182.97;;;5.26;73.72
78717;BME280;68045;50.042;14.432;2023-12-22T17:19:12;96155.59;;;5.06;74.16
78717;BME280;68045;50.042;14.432;2023-12-22T17:23:13;96169.97;;;5.04;74.69
78717;BME280;68045;50.042;14.432;2023-12-22T17:27:14;96177.94;;;5.19;75.13
78717;BME280;68045;50.042;14.432;2023-12-22T17:31:16;96180.16;;;5.05;76.38
78717;BME280;68045;50.042;14.432;2023-12-22T17:35:17;96162.03;;;4.93;76.49
78717;BME280;68045;50.042;14.432;2023-12-22T17:39:18;96165.19;;;4.95;77.08
78717;BME280;68045;50.042;14.432;2023-12-22T17:43:19;96174.78;;;4.90;78.15
78717;BME280;68045;50.042;14.432;2023-12-22T17:47:20;96189.50;;;4.96;77.78
78717;BME280;68045;50.042;14.432;2023-12-22T17:51:21;96194.38;;;4.87;78.69
78717;BME280;68045;50.042;14.432;2023-12-22T17:55:22;96187.63;;;4.69;79.73
78717;BME280;68045;50.042;14.432;2023-12-22T17:59:23;96191.28;;;4.68;79.19
78717;BME280;68045;50.042;14.432;2023-12-22T18:03:24;96198.13;;;4.75;79.31
78717;BME280;68045;50.042;14.432;2023-12-22T18:07:25;96192.38;;;4.73;80.53
78717;BME280;68045;50.042;14.432;2023-12-22T18:11:26;96187.56;;;4.64;81.41
78717;BME280;68045;50.042;14.432;2023-12-22T18:15:27;96202.31;;;4.54;81.95
78717;BME280;68045;50.042;14.432;2023-12-22T18:19:28;96188.72;;;4.52;82.97
78717;BME280;68045;50.042;14.432;2023-12-22T18:23:29;96190.13;;;4.37;83.46
78717;BME280;68045;50.042;14.432;2023-12-22T18:27:30;96180.34;;;3.94;85.09
78717;BME280;68045;50.042;14.432;2023-12-22T18:31:31;96178.16;;;4.03;86.67
78717;BME280;68045;50.042;14.432;2023-12-22T18:35:31;96179.34;;;3.78;88.18
78717;BME280;68045;50.042;14.432;2023-12-22T18:39:33;96182.81;;;4.01;87.42
78717;BME280;68045;50.042;14.432;2023-12-22T18:43:34;96165.56;;;4.00;87.92
78717;BME280;68045;50.042;14.432;2023-12-22T18:47:34;96182.75;;;3.96;87.49
78717;BME280;68045;50.042;14.432;2023-12-22T18:51:35;96173.13;;;3.63;88.35
78717;BME280;68045;50.042;14.432;2023-12-22T18:55:36;96172.25;;;3.74;89.29
78717;BME280;68045;50.042;14.432;2023-12-22T18:59:37;96179.44;;;3.83;89.32
78717;BME280;68045;50.042;14.432;2023-12-22T19:03:38;96179.97;;;3.85;89.42
78717;BME280;68045;50.042;14.432;2023-12-22T19:07:39;96219.44;;;4.06;88.25
78717;BME280;68045;50.042;14.432;2023-12-22T19:11:41;96236.59;;;4.19;87.86
78717;BME280;68045;50.042;14.432;2023-12-22T19:15:44;96256.75;;;4.06;83.10
78717;BME280;68045;50.042;14.432;2023-12-22T19:19:45;96262.19;;;3.71;81.86
78717;BME280;68045;50.042;14.432;2023-12-22T19:23:47;96279.66;;;3.54;82.32
78717;BME280;68045;50.042;14.432;2023-12-22T19:27:48;96255.28;;;3.32;82.97
78717;BME280;68045;50.042;14.432;2023-12-22T19:31:50;96249.97;;;3.26;83.11
78717;BME280;68045;50.042;14.432;2023-12-22T19:35:51;96252.34;;;3.16;83.14
78717;BME280;68045;50.042;14.432;2023-12-22T19:39:52;96248.88;;;3.11;83.41
78717;BME280;68045;50.042;14.432;2023-12-22T19:43:53;96252.63;;;3.03;83.47
78717;BME280;68045;50.042;14.432;2023-12-22T19:47:54;96261.25;;;3.03;83.43
78717;BME280;68045;50.042;14.432;2023-12-22T19:51:55;96269.53;;;3.00;83.24
78717;BME280;68045;50.042;14.432;2023-12-22T19:55:57;96275.22;;;2.97;83.79
78717;BME280;68045;50.042;14.432;2023-12-22T19:59:58;96285.09;;;2.84;84.26
78717;BME280;68045;50.042;14.432;2023-12-22T20:03:59;96310.78;;;2.80;84.69
78717;BME280;68045;50.042;14.432;2023-12-22T20:08:01;96321.22;;;2.80;84.65
78717;BME280;68045;50.042;14.432;2023-12-22T20:12:03;96327.00;;;2.70;84.72
78717;BME280;68045;50.042;14.432;2023-12-22T20:16:06;96315.13;;;2.63;85.22
78717;BME280;68045;50.042;14.432;2023-12-22T20:20:07;96319.78;;;2.61;85.28
78717;BME280;68045;50.042;14.432;2023-12-22T20:24:10;96328.13;;;2.51;86.16
78717;BME280;68045;50.042;14.432;2023-12-22T20:28:11;96318.28;;;2.65;85.13
78717;BME280;68045;50.042;14.432;2023-12-22T20:32:12;96326.47;;;2.68;85.58
78717;BME280;68045;50.042;14.432;2023-12-22T20:36:13;96331.31;;;2.77;85.17
78717;BME280;68045;50.042;14.432;2023-12-22T20:40:14;96346.50;;;2.68;85.68
78717;BME280;68045;50.042;14.432;2023-12-22T20:44:15;96350.09;;;2.67;85.15
78717;BME280;68045;50.042;14.432;2023-12-22T20:48:17;96338.78;;;2.73;84.79
78717;BME280;68045;50.042;14.432;2023-12-22T20:52:21;96326.53;;;2.73;85.11
78717;BME280;68045;50.042;14.432;2023-12-22T20:56:23;96337.88;;;2.79;84.69
78717;BME280;68045;50.042;14.432;2023-12-22T21:00:24;96360.06;;;2.82;84.61
78717;BME280;68045;50.042;14.432;2023-12-22T21:04:25;96346.81;;;2.83;84.83
78717;BME280;68045;50.042;14.432;2023-12-22T21:08:26;96377.84;;;2.85;84.24
78717;BME280;68045;50.042;14.432;2023-12-22T21:12:29;96378.97;;;2.89;84.20
78717;BME280;68045;50.042;14.432;2023-12-22T21:16:30;96381.00;;;2.87;84.39
78717;BME280;68045;50.042;14.432;2023-12-22T21:20:31;96372.63;;;2.85;84.46
78717;BME280;68045;50.042;14.432;2023-12-22T21:24:32;96357.34;;;2.77;84.84
78717;BME280;68045;50.042;14.432;2023-12-22T21:28:34;96345.81;;;2.72;84.94